createdAt,value
2018-06-04T00:00:51.057Z,0
2018-06-04T00:01:50.840Z,0
2018-06-04T00:02:51.048Z,0
2018-06-04T00:03:50.830Z,0
2018-06-04T00:04:51.060Z,0
2018-06-04T00:05:51.081Z,0
2018-06-04T00:06:50.519Z,0
2018-06-04T00:07:51.044Z,0
2018-06-04T00:08:51.028Z,0
2018-06-04T00:09:51.078Z,0
2018-06-04T00:10:51.047Z,0
2018-06-04T00:11:51.016Z,0
2018-06-04T00:12:51.054Z,0
2018-06-04T00:13:50.739Z,0
2018-06-04T00:14:50.776Z,0
2018-06-04T00:15:51.023Z,0
2018-06-04T00:16:50.793Z,0
2018-06-04T00:17:51.009Z,0
2018-06-04T00:18:51.014Z,0
2018-06-04T00:19:50.774Z,0
2018-06-04T00:20:50.740Z,0
2018-06-04T00:21:50.718Z,0
2018-06-04T00:22:51.004Z,0
2018-06-04T00:23:50.464Z,0
2018-06-04T00:24:50.974Z,0
2018-06-04T00:25:50.993Z,0
2018-06-04T00:26:50.989Z,0
2018-06-04T00:27:50.958Z,0
2018-06-04T00:28:50.704Z,0
2018-06-04T00:29:50.939Z,0
2018-06-04T00:30:50.999Z,0
2018-06-04T00:31:50.946Z,0
2018-06-04T00:32:50.986Z,0
2018-06-04T00:33:50.674Z,0
2018-06-04T00:34:50.957Z,0
2018-06-04T00:35:50.910Z,0
2018-06-04T00:36:50.684Z,0
2018-06-04T00:37:50.901Z,0
2018-06-04T00:38:50.944Z,0
2018-06-04T00:39:50.935Z,0
2018-06-04T00:40:50.924Z,0
2018-06-04T00:41:50.677Z,0
2018-06-04T00:42:50.886Z,0
2018-06-04T00:43:50.660Z,0
2018-06-04T00:44:50.914Z,0
2018-06-04T00:45:50.925Z,0
2018-06-04T00:46:50.873Z,0
2018-06-04T00:47:50.897Z,0
2018-06-04T00:48:50.955Z,0
2018-06-04T00:49:50.636Z,0
2018-06-04T00:50:50.919Z,0
2018-06-04T00:51:50.598Z,0
2018-06-04T00:52:50.897Z,0
2018-06-04T00:53:50.847Z,0
2018-06-04T00:54:50.881Z,0
2018-06-04T00:55:50.861Z,0
2018-06-04T00:56:50.886Z,0
2018-06-04T00:57:50.322Z,0
2018-06-04T00:58:50.573Z,0
2018-06-04T00:59:50.841Z,0
2018-06-04T01:00:50.849Z,0
2018-06-04T01:01:50.862Z,0
2018-06-04T01:02:50.819Z,0
2018-06-04T01:03:50.576Z,0
2018-06-04T01:04:50.819Z,0
2018-06-04T01:05:50.594Z,0
2018-06-04T01:06:50.835Z,0
2018-06-04T01:07:50.843Z,0
2018-06-04T01:08:50.553Z,0
2018-06-04T01:09:50.840Z,0
2018-06-04T01:10:50.534Z,0
2018-06-04T01:11:50.543Z,0
2018-06-04T01:12:50.786Z,0
2018-06-04T01:13:50.570Z,0
2018-06-04T01:14:50.514Z,0
2018-06-04T01:15:50.795Z,0
2018-06-04T01:16:50.825Z,0
2018-06-04T01:17:50.805Z,0
2018-06-04T01:18:50.794Z,0
2018-06-04T01:19:50.522Z,0
2018-06-04T01:20:50.515Z,0
2018-06-04T01:21:50.802Z,0
2018-06-04T01:22:50.493Z,0
2018-06-04T01:23:50.544Z,0
2018-06-04T01:24:50.246Z,0
2018-06-04T01:25:50.527Z,0
2018-06-04T01:26:50.228Z,0
2018-06-04T01:27:50.740Z,0
2018-06-04T01:28:50.740Z,0
2018-06-04T01:29:50.764Z,0
2018-06-04T01:30:50.495Z,0
2018-06-04T01:31:50.724Z,0
2018-06-04T01:32:50.718Z,0
2018-06-04T01:33:50.699Z,0
2018-06-04T01:34:50.741Z,0
2018-06-04T01:35:50.727Z,0
2018-06-04T01:36:50.744Z,0
2018-06-04T01:37:50.435Z,0
2018-06-04T01:38:50.474Z,0
2018-06-04T01:39:50.699Z,0
2018-06-04T01:40:50.710Z,0
2018-06-04T01:41:50.751Z,0
2018-06-04T01:42:50.677Z,0
2018-06-04T01:43:50.704Z,0
2018-06-04T01:44:50.179Z,0
2018-06-04T01:45:50.729Z,0
2018-06-04T01:46:50.707Z,0
2018-06-04T01:47:50.679Z,0
2018-06-04T01:48:50.664Z,0
2018-06-04T01:49:50.397Z,0
2018-06-04T01:50:50.689Z,0
2018-06-04T01:51:50.677Z,0
2018-06-04T01:52:50.705Z,0
2018-06-04T01:53:50.660Z,0
2018-06-04T01:54:50.430Z,0
2018-06-04T01:55:50.381Z,0
2018-06-04T01:56:50.667Z,0
2018-06-04T01:57:50.635Z,0
2018-06-04T01:58:50.414Z,0
2018-06-04T01:59:50.651Z,0
2018-06-04T02:00:50.664Z,0
2018-06-04T02:01:50.372Z,4
2018-06-04T02:02:50.618Z,4
2018-06-04T02:03:50.643Z,0
2018-06-04T02:04:50.640Z,4
2018-06-04T02:05:50.602Z,4
2018-06-04T02:06:50.389Z,0
2018-06-04T02:07:50.361Z,4
2018-06-04T02:08:50.392Z,8
2018-06-04T02:09:50.596Z,8
2018-06-04T02:10:50.632Z,12
2018-06-04T02:11:50.591Z,12
2018-06-04T02:12:50.621Z,12
2018-06-04T02:13:50.583Z,12
2018-06-04T02:14:50.626Z,12
2018-06-04T02:15:50.600Z,12
2018-06-04T02:16:50.613Z,12
2018-06-04T02:17:50.576Z,16
2018-06-04T02:18:50.574Z,16
2018-06-04T02:19:50.591Z,16
2018-06-04T02:20:50.339Z,24
2018-06-04T02:21:50.607Z,24
2018-06-04T02:22:50.302Z,28
2018-06-04T02:23:50.589Z,32
2018-06-04T02:24:50.319Z,36
2018-06-04T02:25:50.609Z,36
2018-06-04T02:26:50.541Z,44
2018-06-04T02:27:50.589Z,48
2018-06-04T02:28:50.560Z,56
2018-06-04T02:29:50.575Z,60
2018-06-04T02:30:50.535Z,64
2018-06-04T02:31:50.557Z,76
2018-06-04T02:32:50.299Z,80
2018-06-04T02:33:50.543Z,88
2018-06-04T02:34:50.019Z,96
2018-06-04T02:35:50.287Z,104
2018-06-04T02:36:50.292Z,116
2018-06-04T02:37:50.553Z,124
2018-06-04T02:38:50.517Z,136
2018-06-04T02:39:50.017Z,144
2018-06-04T02:40:49.991Z,160
2018-06-04T02:41:50.544Z,176
2018-06-04T02:42:50.499Z,200
2018-06-04T02:43:50.532Z,220
2018-06-04T02:44:50.266Z,236
2018-06-04T02:45:50.484Z,260
2018-06-04T02:46:50.571Z,276
2018-06-04T02:47:50.510Z,288
2018-06-04T02:48:50.244Z,300
2018-06-04T02:49:50.624Z,316
2018-06-04T02:50:50.467Z,336
2018-06-04T02:51:50.490Z,360
2018-06-04T02:52:50.495Z,388
2018-06-04T02:53:50.248Z,424
2018-06-04T02:54:50.447Z,452
2018-06-04T02:55:50.486Z,488
2018-06-04T02:56:50.475Z,516
2018-06-04T02:57:50.191Z,548
2018-06-04T02:58:50.489Z,592
2018-06-04T02:59:50.444Z,632
2018-06-04T03:00:50.468Z,680
2018-06-04T03:01:50.432Z,720
2018-06-04T03:02:50.472Z,760
2018-06-04T03:03:50.452Z,804
2018-06-04T03:04:50.458Z,844
2018-06-04T03:05:50.418Z,888
2018-06-04T03:06:50.424Z,936
2018-06-04T03:07:50.433Z,992
2018-06-04T03:08:50.175Z,1060
2018-06-04T03:09:50.440Z,1132
2018-06-04T03:10:50.395Z,1208
2018-06-04T03:11:50.423Z,1296
2018-06-04T03:12:50.397Z,1388
2018-06-04T03:13:50.431Z,1480
2018-06-04T03:14:50.386Z,1572
2018-06-04T03:15:50.160Z,1660
2018-06-04T03:16:50.384Z,1752
2018-06-04T03:17:50.423Z,1848
2018-06-04T03:18:50.360Z,1956
2018-06-04T03:19:50.389Z,2064
2018-06-04T03:20:50.364Z,2172
2018-06-04T03:21:50.135Z,2268
2018-06-04T03:22:50.343Z,2352
2018-06-04T03:23:50.370Z,2424
2018-06-04T03:24:50.128Z,2496
2018-06-04T03:25:50.379Z,2588
2018-06-04T03:26:50.339Z,2676
2018-06-04T03:27:50.103Z,2748
2018-06-04T03:28:50.066Z,2816
2018-06-04T03:29:50.365Z,2880
2018-06-04T03:30:50.323Z,2928
2018-06-04T03:31:50.390Z,2984
2018-06-04T03:32:50.337Z,3072
2018-06-04T03:33:50.363Z,3180
2018-06-04T03:34:49.569Z,3316
2018-06-04T03:35:50.066Z,3476
2018-06-04T03:36:50.049Z,3620
2018-06-04T03:37:50.344Z,3768
2018-06-04T03:38:50.331Z,3872
2018-06-04T03:39:50.306Z,3984
2018-06-04T03:40:50.303Z,4072
2018-06-04T03:41:50.289Z,4184
2018-06-04T03:42:50.321Z,4296
2018-06-04T03:43:50.293Z,4428
2018-06-04T03:44:50.316Z,4576
2018-06-04T03:45:50.022Z,4704
2018-06-04T03:46:50.054Z,4864
2018-06-04T03:47:49.775Z,5024
2018-06-04T03:48:49.762Z,5196
2018-06-04T03:49:49.994Z,5404
2018-06-04T03:50:49.739Z,5604
2018-06-04T03:51:49.730Z,5772
2018-06-04T03:52:49.983Z,5924
2018-06-04T03:53:50.227Z,6008
2018-06-04T03:54:49.972Z,6148
2018-06-04T03:55:50.229Z,6268
2018-06-04T03:56:50.228Z,6380
2018-06-04T03:57:50.219Z,6576
2018-06-04T03:58:50.222Z,6796
2018-06-04T03:59:49.961Z,7120
2018-06-04T04:00:50.227Z,7508
2018-06-04T04:01:50.013Z,7780
2018-06-04T04:02:50.287Z,8092
2018-06-04T04:03:49.958Z,8288
2018-06-04T04:04:50.215Z,8400
2018-06-04T04:05:50.215Z,8656
2018-06-04T04:06:50.216Z,8868
2018-06-04T04:07:50.216Z,9088
2018-06-04T04:08:50.208Z,9404
2018-06-04T04:09:50.209Z,9728
2018-06-04T04:10:50.211Z,10088
2018-06-04T04:11:50.207Z,10120
2018-06-04T04:12:50.219Z,10248
2018-06-04T04:13:50.210Z,10564
2018-06-04T04:14:49.964Z,10684
2018-06-04T04:15:49.964Z,10824
2018-06-04T04:16:49.712Z,11104
2018-06-04T04:17:50.208Z,11196
2018-06-04T04:18:49.958Z,11280
2018-06-04T04:19:50.214Z,11492
2018-06-04T04:20:49.965Z,11944
2018-06-04T04:21:49.719Z,12328
2018-06-04T04:22:50.288Z,12540
2018-06-04T04:23:50.275Z,12548
2018-06-04T04:24:50.275Z,12836
2018-06-04T04:25:50.245Z,13200
2018-06-04T04:26:50.001Z,12932
2018-06-04T04:27:50.348Z,13176
2018-06-04T04:28:50.338Z,13696
2018-06-04T04:29:50.303Z,13728
2018-06-04T04:30:50.015Z,14784
2018-06-04T04:31:50.300Z,14912
2018-06-04T04:32:50.272Z,14784
2018-06-04T04:33:50.320Z,15488
2018-06-04T04:34:50.282Z,15712
2018-06-04T04:35:50.074Z,15904
2018-06-04T04:36:50.290Z,16480
2018-06-04T04:37:50.545Z,16480
2018-06-04T04:38:50.279Z,16512
2018-06-04T04:39:50.285Z,17344
2018-06-04T04:40:50.300Z,17536
2018-06-04T04:41:50.303Z,16672
2018-06-04T04:42:50.304Z,17376
2018-06-04T04:43:50.306Z,18144
2018-06-04T04:44:50.062Z,18112
2018-06-04T04:45:50.066Z,18848
2018-06-04T04:46:50.504Z,19040
2018-06-04T04:47:50.130Z,18464
2018-06-04T04:48:50.410Z,19264
2018-06-04T04:49:50.715Z,19968
2018-06-04T04:50:50.383Z,19776
2018-06-04T04:51:50.183Z,19968
2018-06-04T04:53:03.130Z,19808
2018-06-04T04:53:50.447Z,19296
2018-06-04T04:54:50.401Z,19584
2018-06-04T04:55:50.425Z,17760
2018-06-04T04:56:50.428Z,17792
2018-06-04T04:57:50.476Z,17504
2018-06-04T04:58:50.473Z,17440
2018-06-04T04:59:50.651Z,18336
2018-06-04T05:00:50.220Z,19072
2018-06-04T05:01:50.466Z,18368
2018-06-04T05:02:50.517Z,18144
2018-06-04T05:03:50.485Z,19232
2018-06-04T05:04:50.492Z,19552
2018-06-04T05:05:50.536Z,18944
2018-06-04T05:06:50.250Z,19264
2018-06-04T05:07:50.563Z,20256
2018-06-04T05:08:50.020Z,20576
2018-06-04T05:09:50.569Z,21248
2018-06-04T05:10:49.774Z,21856
2018-06-04T05:11:50.310Z,21824
2018-06-04T05:12:50.565Z,22048
2018-06-04T05:13:50.611Z,22816
2018-06-04T05:14:50.356Z,22784
2018-06-04T05:15:50.596Z,22272
2018-06-04T05:16:50.618Z,22144
2018-06-04T05:17:50.599Z,21984
2018-06-04T05:18:50.530Z,22560
2018-06-04T05:19:50.886Z,24096
2018-06-04T05:20:50.496Z,24768
2018-06-04T05:21:50.731Z,24032
2018-06-04T05:22:50.749Z,24320
2018-06-04T05:24:05.333Z,25056
2018-06-04T05:24:50.438Z,24576
2018-06-04T05:25:50.444Z,24608
2018-06-04T05:26:50.734Z,26464
2018-06-04T05:27:50.747Z,27392
2018-06-04T05:28:50.474Z,25696
2018-06-04T05:29:50.483Z,24352
2018-06-04T05:30:50.528Z,25344
2018-06-04T05:31:50.677Z,26304
2018-06-04T05:32:50.790Z,25952
2018-06-04T05:33:50.507Z,26176
2018-06-04T05:34:50.823Z,26432
2018-06-04T05:35:50.793Z,26208
2018-06-04T05:36:50.840Z,26624
2018-06-04T05:37:50.309Z,26592
2018-06-04T05:38:50.873Z,26144
2018-06-04T05:39:50.587Z,26976
2018-06-04T05:40:50.349Z,28896
2018-06-04T05:41:50.607Z,30464
2018-06-04T05:42:50.909Z,30336
2018-06-04T05:43:50.915Z,29184
2018-06-04T05:44:50.905Z,28704
2018-06-04T05:45:50.907Z,29312
2018-06-04T05:46:50.906Z,30688
2018-06-04T05:47:50.967Z,31392
2018-06-04T05:48:50.950Z,30432
2018-06-04T05:49:51.034Z,28864
2018-06-04T05:50:50.448Z,28896
2018-06-04T05:51:51.007Z,31136
2018-06-04T05:52:50.998Z,33024
2018-06-04T05:53:51.078Z,33600
2018-06-04T05:54:51.001Z,33888
2018-06-04T05:55:51.053Z,33536
2018-06-04T05:56:51.050Z,33504
2018-06-04T05:57:51.065Z,34816
2018-06-04T05:58:51.094Z,37152
2018-06-04T05:59:51.119Z,38240
2018-06-04T06:00:51.113Z,37792
2018-06-04T06:01:51.370Z,36736
2018-06-04T06:02:54.922Z,36640
2018-06-04T06:03:51.136Z,37472
2018-06-04T06:04:51.145Z,38752
2018-06-04T06:05:51.192Z,39968
2018-06-04T06:06:50.939Z,40960
2018-06-04T06:07:50.961Z,40832
2018-06-04T06:08:51.205Z,39136
2018-06-04T06:09:51.242Z,34944
2018-06-04T06:10:51.224Z,33568
2018-06-04T06:11:53.935Z,35040
2018-06-04T06:13:51.245Z,36320
2018-06-04T06:15:10.229Z,32896
2018-06-04T06:15:51.293Z,21824
2018-06-04T06:17:05.330Z,20800
2018-06-04T06:18:51.362Z,16388
2018-06-04T06:19:51.455Z,21792
2018-06-04T06:20:51.113Z,28320
2018-06-04T06:22:04.087Z,27584
2018-06-04T06:22:51.417Z,21824
2018-06-04T06:23:51.403Z,20768
2018-06-04T06:24:51.427Z,26112
2018-06-04T06:25:51.190Z,24032
2018-06-04T06:26:51.429Z,17568
2018-06-04T06:27:51.495Z,20352
2018-06-04T06:28:51.482Z,25760
2018-06-04T06:29:51.500Z,26528
2018-06-04T06:30:51.685Z,24224
2018-06-04T06:31:51.242Z,24032
2018-06-04T06:32:51.273Z,26624
2018-06-04T06:33:51.033Z,32800
2018-06-04T06:34:51.314Z,39072
2018-06-04T06:35:51.285Z,44416
2018-06-04T06:36:51.329Z,44000
2018-06-04T06:37:51.562Z,44384
2018-06-04T06:38:51.622Z,44064
2018-06-04T06:39:51.352Z,42368
2018-06-04T06:40:51.413Z,38048
2018-06-04T06:41:51.639Z,33952
2018-06-04T06:42:51.688Z,37952
2018-06-04T06:43:51.390Z,42944
2018-06-04T06:44:51.419Z,44864
2018-06-04T06:45:51.423Z,49536
2018-06-04T06:46:51.778Z,49408
2018-06-04T06:47:51.738Z,52384
2018-06-04T06:48:51.750Z,56864
2018-06-04T06:49:51.483Z,60448
2018-06-04T06:50:51.809Z,61632
2018-06-04T06:51:51.806Z,60640
2018-06-04T06:52:51.820Z,59552
2018-06-04T06:53:51.528Z,60320
2018-06-04T06:54:51.874Z,64128
2018-06-04T06:55:51.825Z,70880
2018-06-04T06:56:51.876Z,77536
2018-06-04T06:57:51.848Z,88800
2018-06-04T06:58:51.642Z,97152
2018-06-04T06:59:51.623Z,95232
2018-06-04T07:00:51.907Z,84896
2018-06-04T07:01:51.962Z,71168
2018-06-04T07:02:51.721Z,53760
2018-06-04T07:03:51.966Z,44544
2018-06-04T07:04:51.981Z,33920
2018-06-04T07:05:51.987Z,22720
2018-06-04T07:06:51.981Z,45536
2018-06-04T07:07:51.774Z,69184
2018-06-04T07:08:52.042Z,70400
2018-06-04T07:09:51.815Z,122656
2018-06-04T07:10:51.812Z,128960
2018-06-04T07:11:51.851Z,126304
2018-06-04T07:12:51.845Z,103584
2018-06-04T07:13:52.123Z,89376
2018-06-04T07:14:52.099Z,66144
2018-06-04T07:15:52.158Z,45952
2018-06-04T07:16:52.162Z,34944
2018-06-04T07:17:51.911Z,35008
2018-06-04T07:18:51.949Z,45536
2018-06-04T07:19:52.230Z,60672
2018-06-04T07:20:52.202Z,74368
2018-06-04T07:21:52.229Z,79392
2018-06-04T07:22:52.220Z,80512
2018-06-04T07:23:52.275Z,81376
2018-06-04T07:24:52.286Z,74720
2018-06-04T07:25:52.326Z,69248
2018-06-04T07:26:52.614Z,70976
2018-06-04T07:27:52.079Z,74944
2018-06-04T07:28:52.308Z,75648
2018-06-04T07:29:52.363Z,69440
2018-06-04T07:30:52.347Z,44224
2018-06-04T07:31:52.175Z,73696
2018-06-04T07:32:52.400Z,73184
2018-06-04T07:33:52.431Z,67904
2018-06-04T07:34:52.672Z,58496
2018-06-04T07:35:52.436Z,48512
2018-06-04T07:36:52.510Z,22912
2018-06-04T07:37:52.503Z,38080
2018-06-04T07:38:52.272Z,30688
2018-06-04T07:39:52.235Z,27520
2018-06-04T07:40:52.275Z,28352
2018-06-04T07:41:52.577Z,25888
2018-06-04T07:42:52.284Z,24768
2018-06-04T07:43:52.353Z,24192
2018-06-04T07:44:52.333Z,24448
2018-06-04T07:45:52.687Z,25280
2018-06-04T07:46:52.628Z,24480
2018-06-04T07:47:52.656Z,22912
2018-06-04T07:48:52.412Z,31552
2018-06-04T07:49:52.829Z,34016
2018-06-04T07:50:52.657Z,24352
2018-06-04T07:51:52.665Z,36800
2018-06-04T07:52:52.731Z,40032
2018-06-04T07:53:52.461Z,42848
2018-06-04T07:54:52.513Z,41600
2018-06-04T07:55:52.728Z,43456
2018-06-04T07:56:52.505Z,42976
2018-06-04T07:57:52.488Z,39328
2018-06-04T07:58:52.828Z,41824
2018-06-04T07:59:52.529Z,43104
2018-06-04T08:00:53.188Z,27232
2018-06-04T08:01:52.568Z,51008
2018-06-04T08:02:52.693Z,48064
2018-06-04T08:03:52.606Z,45280
2018-06-04T08:04:52.899Z,47584
2018-06-04T08:05:52.122Z,42752
2018-06-04T08:06:52.947Z,33536
2018-06-04T08:07:52.653Z,39136
2018-06-04T08:08:52.983Z,30112
2018-06-04T08:09:52.731Z,45120
2018-06-04T08:10:52.739Z,48288
2018-06-04T08:11:52.717Z,39072
2018-06-04T08:12:52.989Z,18336
2018-06-04T08:13:52.733Z,16688
2018-06-04T08:14:52.793Z,17048
2018-06-04T08:15:52.773Z,37952
2018-06-04T08:16:52.821Z,64960
2018-06-04T08:17:53.073Z,67456
2018-06-04T08:18:53.101Z,68416
2018-06-04T08:19:52.818Z,64992
2018-06-04T08:20:53.121Z,58144
2018-06-04T08:21:52.598Z,47776
2018-06-04T08:22:53.162Z,24448
2018-06-04T08:23:53.371Z,62976
2018-06-04T08:24:53.391Z,63616
2018-06-04T08:25:53.167Z,62304
2018-06-04T08:26:53.174Z,65216
2018-06-04T08:27:53.209Z,63456
2018-06-04T08:28:53.217Z,68064
2018-06-04T08:29:53.239Z,41696
2018-06-04T08:30:52.973Z,51104
2018-06-04T08:31:53.019Z,23008
2018-06-04T08:32:53.253Z,21472
2018-06-04T08:33:53.277Z,18048
2018-06-04T08:34:53.351Z,16480
2018-06-04T08:35:52.788Z,15968
2018-06-04T08:36:53.357Z,16576
2018-06-04T08:37:53.365Z,17920
2018-06-04T08:38:53.377Z,52320
2018-06-04T08:39:53.155Z,59584
2018-06-04T08:40:52.611Z,66720
2018-06-04T08:41:53.376Z,70720
2018-06-04T08:42:53.412Z,68832
2018-06-04T08:43:53.435Z,63808
2018-06-04T08:44:53.151Z,65728
2018-06-04T08:45:53.038Z,69888
2018-06-04T08:46:53.430Z,75904
2018-06-04T08:47:53.557Z,82080
2018-06-04T08:48:53.935Z,86112
2018-06-04T08:49:53.533Z,78336
2018-06-04T08:50:53.538Z,21760
2018-06-04T08:51:53.574Z,17856
2018-06-04T08:52:53.547Z,15860
2018-06-04T08:53:53.337Z,14880
2018-06-04T08:54:53.311Z,14356
2018-06-04T08:55:53.605Z,15656
2018-06-04T08:56:53.660Z,19584
2018-06-04T08:57:53.354Z,21504
2018-06-04T08:58:53.325Z,23392
2018-06-04T08:59:54.174Z,24320
2018-06-04T09:00:53.666Z,24960
2018-06-04T09:01:53.806Z,25632
2018-06-04T09:02:53.733Z,23776
2018-06-04T09:03:53.703Z,23040
2018-06-04T09:04:53.638Z,23872
2018-06-04T09:05:53.684Z,25312
2018-06-04T09:06:53.865Z,25696
2018-06-04T09:07:53.938Z,25280
2018-06-04T09:08:53.715Z,23584
2018-06-04T09:09:54.068Z,21024
2018-06-04T09:10:53.456Z,16244
2018-06-04T09:11:53.733Z,14252
2018-06-04T09:12:53.513Z,12380
2018-06-04T09:13:53.809Z,11448
2018-06-04T09:14:53.831Z,10900
2018-06-04T09:15:53.951Z,10900
2018-06-04T09:16:53.887Z,11500
2018-06-04T09:17:53.575Z,12992
2018-06-04T09:18:53.824Z,14352
2018-06-04T09:19:53.808Z,15132
2018-06-04T09:20:53.881Z,16020
2018-06-04T09:21:53.915Z,18176
2018-06-04T09:22:53.883Z,19776
2018-06-04T09:23:53.837Z,20032
2018-06-04T09:24:53.867Z,18464
2018-06-04T09:25:53.876Z,16768
2018-06-04T09:26:53.870Z,15864
2018-06-04T09:27:53.608Z,14588
2018-06-04T09:28:53.415Z,14048
2018-06-04T09:29:53.963Z,14608
2018-06-04T09:30:53.976Z,15584
2018-06-04T09:31:53.948Z,16380
2018-06-04T09:32:53.922Z,16404
2018-06-04T09:33:53.960Z,16220
2018-06-04T09:34:54.050Z,15904
2018-06-04T09:35:53.951Z,15748
2018-06-04T09:36:54.024Z,15668
2018-06-04T09:37:53.975Z,15836
2018-06-04T09:38:54.011Z,15920
2018-06-04T09:39:54.036Z,16620
2018-06-04T09:40:54.038Z,16980
2018-06-04T09:41:53.763Z,16976
2018-06-04T09:42:53.959Z,17300
2018-06-04T09:43:54.071Z,17312
2018-06-04T09:44:53.739Z,16292
2018-06-04T09:45:54.024Z,16088
2018-06-04T09:46:54.050Z,16596
2018-06-04T09:47:53.788Z,18656
2018-06-04T09:48:54.021Z,20768
2018-06-04T09:49:54.080Z,22816
2018-06-04T09:50:54.102Z,21888
2018-06-04T09:51:53.811Z,21984
2018-06-04T09:52:54.300Z,22336
2018-06-04T09:53:54.361Z,21632
2018-06-04T09:54:54.060Z,20896
2018-06-04T09:55:53.861Z,20256
2018-06-04T09:56:54.091Z,19616
2018-06-04T09:57:54.102Z,18528
2018-06-04T09:58:53.807Z,19488
2018-06-04T09:59:53.833Z,21536
2018-06-04T10:00:53.950Z,19808
2018-06-04T10:01:54.117Z,17280
2018-06-04T10:02:54.207Z,16928
2018-06-04T10:03:54.127Z,19328
2018-06-04T10:04:53.969Z,20352
2018-06-04T10:05:54.143Z,20928
2018-06-04T10:06:54.179Z,20192
2018-06-04T10:07:54.141Z,19136
2018-06-04T10:08:54.218Z,18176
2018-06-04T10:09:54.172Z,16268
2018-06-04T10:10:54.218Z,15932
2018-06-04T10:11:53.929Z,16424
2018-06-04T10:12:54.210Z,16400
2018-06-04T10:13:54.511Z,15492
2018-06-04T10:14:54.031Z,13792
2018-06-04T10:15:54.197Z,12640
2018-06-04T10:16:54.230Z,12380
2018-06-04T10:17:53.978Z,11836
2018-06-04T10:18:54.017Z,12168
2018-06-04T10:19:54.217Z,13764
2018-06-04T10:20:54.016Z,14200
2018-06-04T10:21:53.727Z,13424
2018-06-04T10:22:54.303Z,13860
2018-06-04T10:23:54.250Z,13816
2018-06-04T10:24:54.297Z,14288
2018-06-04T10:25:54.291Z,14776
2018-06-04T10:26:54.066Z,13724
2018-06-04T10:27:54.376Z,12232
2018-06-04T10:28:54.321Z,10660
2018-06-04T10:29:54.080Z,10148
2018-06-04T10:30:54.105Z,11068
2018-06-04T10:31:54.114Z,12316
2018-06-04T10:32:54.074Z,11876
2018-06-04T10:33:54.054Z,11444
2018-06-04T10:34:54.303Z,11848
2018-06-04T10:35:53.827Z,12560
2018-06-04T10:36:54.336Z,12900
2018-06-04T10:37:54.371Z,12852
2018-06-04T10:38:54.332Z,11948
2018-06-04T10:39:54.396Z,12032
2018-06-04T10:40:54.371Z,12004
2018-06-04T10:41:54.111Z,11848
2018-06-04T10:42:54.462Z,11632
2018-06-04T10:43:54.349Z,11928
2018-06-04T10:44:54.374Z,12036
2018-06-04T10:45:54.447Z,12332
2018-06-04T10:46:54.216Z,13164
2018-06-04T10:47:54.434Z,14944
2018-06-04T10:48:54.424Z,15604
2018-06-04T10:49:54.152Z,15772
2018-06-04T10:50:54.178Z,16136
2018-06-04T10:51:54.208Z,16328
2018-06-04T10:52:54.184Z,16072
2018-06-04T10:53:54.194Z,15532
2018-06-04T10:54:54.413Z,15252
2018-06-04T10:55:54.466Z,15388
2018-06-04T10:56:54.427Z,15552
2018-06-04T10:57:54.228Z,14828
2018-06-04T10:58:54.172Z,14748
2018-06-04T10:59:54.495Z,14392
2018-06-04T11:00:54.486Z,14316
2018-06-04T11:01:54.245Z,14720
2018-06-04T11:02:54.214Z,15080
2018-06-04T11:03:54.474Z,15228
2018-06-04T11:04:54.416Z,15756
2018-06-04T11:05:54.266Z,16192
2018-06-04T11:06:54.226Z,16896
2018-06-04T11:07:54.534Z,16368
2018-06-04T11:08:55.940Z,15664
2018-06-04T11:09:54.295Z,15768
2018-06-04T11:10:53.996Z,14368
2018-06-04T11:11:54.292Z,13508
2018-06-04T11:12:54.513Z,12244
2018-06-04T11:13:54.568Z,11300
2018-06-04T11:14:54.544Z,10396
2018-06-04T11:15:54.605Z,10284
2018-06-04T11:16:54.323Z,10644
2018-06-04T11:17:54.595Z,12000
2018-06-04T11:18:54.701Z,12988
2018-06-04T11:19:54.097Z,13632
2018-06-04T11:20:54.588Z,14508
2018-06-04T11:21:54.590Z,14756
2018-06-04T11:22:54.330Z,13508
2018-06-04T11:23:54.575Z,12580
2018-06-04T11:24:54.612Z,12296
2018-06-04T11:25:54.721Z,12212
2018-06-04T11:26:54.615Z,12404
2018-06-04T11:27:54.674Z,12292
2018-06-04T11:28:54.651Z,12484
2018-06-04T11:29:54.906Z,12760
2018-06-04T11:30:54.641Z,13208
2018-06-04T11:31:54.688Z,12732
2018-06-04T11:32:54.425Z,12720
2018-06-04T11:33:54.700Z,12752
2018-06-04T11:34:54.443Z,12684
2018-06-04T11:35:54.452Z,12984
2018-06-04T11:36:54.457Z,13456
2018-06-04T11:37:54.436Z,14116
2018-06-04T11:38:54.693Z,13856
2018-06-04T11:39:54.745Z,13552
2018-06-04T11:40:54.747Z,12496
2018-06-04T11:41:54.491Z,11408
2018-06-04T11:42:54.754Z,11424
2018-06-04T11:43:54.916Z,11528
2018-06-04T11:44:54.466Z,11552
2018-06-04T11:45:54.778Z,12176
2018-06-04T11:46:54.478Z,12056
2018-06-04T11:47:54.811Z,11720
2018-06-04T11:48:54.773Z,11156
2018-06-04T11:49:54.809Z,10688
2018-06-04T11:50:54.757Z,11076
2018-06-04T11:51:54.773Z,11652
2018-06-04T11:52:54.803Z,11756
2018-06-04T11:53:54.560Z,11792
2018-06-04T11:54:54.824Z,12260
2018-06-04T11:55:54.792Z,12556
2018-06-04T11:56:55.007Z,13136
2018-06-04T11:57:54.837Z,13156
2018-06-04T11:58:54.861Z,12764
2018-06-04T11:59:54.855Z,11676
2018-06-04T12:00:54.594Z,11212
2018-06-04T12:01:54.859Z,11228
2018-06-04T12:02:54.583Z,11836
2018-06-04T12:03:54.631Z,12760
2018-06-04T12:04:54.887Z,13936
2018-06-04T12:05:55.035Z,13616
2018-06-04T12:06:54.847Z,12792
2018-06-04T12:07:54.882Z,11908
2018-06-04T12:08:54.656Z,11416
2018-06-04T12:09:54.923Z,12348
2018-06-04T12:10:54.420Z,13312
2018-06-04T12:11:54.761Z,14416
2018-06-04T12:12:54.904Z,15272
2018-06-04T12:13:54.646Z,14580
2018-06-04T12:14:54.957Z,13532
2018-06-04T12:15:54.681Z,12896
2018-06-04T12:16:54.457Z,12832
2018-06-04T12:17:54.702Z,11836
2018-06-04T12:18:54.969Z,10808
2018-06-04T12:19:54.671Z,10384
2018-06-04T12:20:54.459Z,10120
2018-06-04T12:21:54.702Z,10404
2018-06-04T12:22:54.803Z,11424
2018-06-04T12:23:54.721Z,12196
2018-06-04T12:24:55.029Z,12788
2018-06-04T12:25:55.042Z,12860
2018-06-04T12:26:55.229Z,13752
2018-06-04T12:27:55.032Z,14732
2018-06-04T12:28:55.021Z,14980
2018-06-04T12:29:54.977Z,14744
2018-06-04T12:30:54.532Z,14244
2018-06-04T12:31:54.764Z,13704
2018-06-04T12:32:54.554Z,13768
2018-06-04T12:33:54.766Z,13500
2018-06-04T12:34:54.832Z,14464
2018-06-04T12:35:54.818Z,14108
2018-06-04T12:36:54.811Z,13752
2018-06-04T12:37:54.834Z,13820
2018-06-04T12:38:54.842Z,12656
2018-06-04T12:39:54.824Z,11244
2018-06-04T12:40:54.850Z,10128
2018-06-04T12:41:54.855Z,9140
2018-06-04T12:42:55.067Z,8856
2018-06-04T12:43:54.846Z,9164
2018-06-04T12:44:54.852Z,9748
2018-06-04T12:45:54.869Z,9736
2018-06-04T12:46:55.081Z,9056
2018-06-04T12:47:55.209Z,8596
2018-06-04T12:48:55.211Z,8596
2018-06-04T12:49:54.886Z,8904
2018-06-04T12:50:54.933Z,9032
2018-06-04T12:51:54.879Z,8808
2018-06-04T12:52:55.142Z,8964
2018-06-04T12:53:54.886Z,9664
2018-06-04T12:54:54.687Z,10596
2018-06-04T12:55:54.683Z,11232
2018-06-04T12:56:54.921Z,12348
2018-06-04T12:57:55.005Z,13308
2018-06-04T12:58:54.980Z,13712
2018-06-04T12:59:55.236Z,13620
2018-06-04T13:00:54.920Z,13344
2018-06-04T13:01:54.948Z,13124
2018-06-04T13:02:55.029Z,13612
2018-06-04T13:03:55.193Z,13864
2018-06-04T13:04:55.204Z,13400
2018-06-04T13:05:55.195Z,12548
2018-06-04T13:06:55.000Z,11564
2018-06-04T13:07:55.213Z,11148
2018-06-04T13:08:54.954Z,11232
2018-06-04T13:09:54.984Z,11216
2018-06-04T13:10:54.755Z,11284
2018-06-04T13:11:55.033Z,11980
2018-06-04T13:12:55.020Z,12136
2018-06-04T13:13:55.023Z,11984
2018-06-04T13:14:54.790Z,10824
2018-06-04T13:15:55.016Z,9700
2018-06-04T13:16:55.039Z,8944
2018-06-04T13:17:55.250Z,8280
2018-06-04T13:18:55.049Z,7932